Time;durP1;ratioP1;P1;durP2;ratioP2;P2;SDS_P1;SDS_P2;PMS_P1;PMS_P2;Temp;Humidity;BMP_temperature;BMP_pressure;BME280_temperature;BME280_humidity;BME280_pressure;Samples;Min_cycle;Max_cycle;Signal;HPM_P1;HPM_P2
2022/06/11 00:01:50;;;;;;;15.10;8.98;;;;;;;21.27;81.33;100177.66;4996871;28;20568;-86
2022/06/11 00:04:47;;;;;;;12.00;8.02;;;;;;;21.28;79.80;100170.28;4997166;28;20471;-86
2022/06/11 00:07:19;;;;;;;12.52;8.68;;;;;;;21.32;79.01;100161.44;4987643;28;20439;-86
2022/06/11 00:09:46;;;;;;;11.48;9.38;;;;;;;21.35;78.30;100169.25;4996547;28;20045;-86
2022/06/11 00:12:12;;;;;;;9.82;8.05;;;;;;;21.32;78.06;100164.19;4979036;28;20467;-89
2022/06/11 00:14:39;;;;;;;16.38;9.10;;;;;;;21.45;78.20;100185.28;4997564;28;20030;-89
2022/06/11 00:17:07;;;;;;;12.43;9.05;;;;;;;21.48;78.51;100182.13;4979778;28;20037;-89
2022/06/11 00:19:34;;;;;;;11.00;9.15;;;;;;;21.48;78.14;100182.97;4979800;28;20027;-89
2022/06/11 00:22:01;;;;;;;14.70;10.02;;;;;;;21.55;77.30;100189.31;4979147;28;20026;-90
2022/06/11 00:24:27;;;;;;;23.55;9.55;;;;;;;21.46;78.00;100179.59;4995342;28;20640;-89
2022/06/11 00:26:55;;;;;;;12.68;9.32;;;;;;;21.55;78.16;100199.41;4979318;28;20038;-88
2022/06/11 00:29:23;;;;;;;10.68;9.55;;;;;;;21.52;78.07;100184.25;4979897;28;20480;-88
2022/06/11 00:31:49;;;;;;;19.15;10.45;;;;;;;21.44;77.96;100178.94;4997632;28;20023;-89
2022/06/11 00:34:14;;;;;;;12.57;10.38;;;;;;;21.43;78.59;100190.97;4997765;28;20041;-88
2022/06/11 00:36:43;;;;;;;15.82;9.77;;;;;;;21.44;78.77;100187.16;4983959;28;20022;-89
2022/06/11 00:39:11;;;;;;;16.42;9.90;;;;;;;21.40;78.86;100172.22;4987001;28;20026;-89
2022/06/11 00:41:40;;;;;;;18.52;11.85;;;;;;;21.51;79.08;100177.09;5011669;28;20035;-88
2022/06/11 00:44:06;;;;;;;23.77;10.48;;;;;;;21.45;79.31;100164.22;5010955;28;20169;-88
2022/06/11 00:46:59;;;;;;;15.68;10.25;;;;;;;21.48;79.36;100160.22;5014075;28;20026;-89
2022/06/11 00:49:45;;;;;;;17.88;10.30;;;;;;;21.54;79.44;100179.41;4995939;28;20562;-89
2022/06/11 00:52:20;;;;;;;16.92;8.63;;;;;;;21.57;78.98;100181.72;4997363;28;20121;-89
2022/06/11 00:54:56;;;;;;;16.60;9.98;;;;;;;21.54;78.96;100181.31;4995127;28;20030;-89
2022/06/11 00:57:23;;;;;;;21.88;9.60;;;;;;;21.53;79.10;100168.66;4984962;28;20037;-88
2022/06/11 00:59:55;;;;;;;13.55;9.55;;;;;;;21.59;79.24;100176.88;4997110;28;20076;-89
2022/06/11 01:02:21;;;;;;;;;;;;;;;21.68;79.34;100193.94;4979197;28;20033;-89
2022/06/11 01:04:55;;;;;;;13.90;9.13;;;;;;;21.57;79.46;100175.41;4996073;28;19910;-89
2022/06/11 01:07:52;;;;;;;12.60;9.73;;;;;;;21.58;79.84;100183.44;4978852;28;20023;-89
2022/06/11 01:10:43;;;;;;;10.68;9.10;;;;;;;21.56;80.12;100190.97;4992918;28;20034;-89
2022/06/11 01:13:30;;;;;;;12.05;8.85;;;;;;;21.59;80.09;100187.84;4996146;28;20030;-88
2022/06/11 01:16:02;;;;;;;15.63;9.18;;;;;;;21.55;80.09;100167.44;4995801;28;20022;-88
2022/06/11 01:18:38;;;;;;;19.33;10.75;;;;;;;21.62;80.16;100181.94;4976935;28;20030;-89
2022/06/11 01:21:19;;;;;;;14.30;10.98;;;;;;;21.47;80.21;100192.22;4996072;28;20018;-89
2022/06/11 01:24:07;;;;;;;16.27;11.25;;;;;;;21.47;80.45;100184.00;5000853;28;20041;-90
2022/06/11 01:27:06;;;;;;;28.17;12.18;;;;;;;21.59;80.13;100178.78;4997661;28;20033;-89
2022/06/11 01:29:56;;;;;;;17.17;11.68;;;;;;;21.64;80.14;100188.06;4978249;28;20105;-89
2022/06/11 01:32:22;;;;;;;22.20;11.82;;;;;;;21.67;79.85;100173.97;4995706;28;20026;-90
2022/06/11 01:35:26;;;;;;;16.92;11.13;;;;;;;21.60;80.30;100159.44;4995924;28;20032;-90
2022/06/11 01:38:03;;;;;;;19.83;12.52;;;;;;;21.66;80.06;100166.81;4969818;28;20034;-89
2022/06/11 01:40:50;;;;;;;19.85;10.95;;;;;;;21.71;80.25;100177.16;4992828;28;20023;-89
2022/06/11 01:43:39;;;;;;;16.20;11.10;;;;;;;21.70;80.10;100181.78;5003314;28;20049;-89
2022/06/11 01:46:17;;;;;;;17.05;11.63;;;;;;;21.66;80.37;100185.97;4972551;28;20062;-89
2022/06/11 01:49:00;;;;;;;24.23;12.40;;;;;;;21.57;80.40;100176.25;4995219;28;20037;-90
2022/06/11 01:51:51;;;;;;;16.80;11.98;;;;;;;21.55;80.41;100193.94;4995462;28;20022;-90
2022/06/11 01:54:41;;;;;;;17.80;11.70;;;;;;;21.50;80.40;100183.59;4977595;28;20030;-88
2022/06/11 01:57:41;;;;;;;24.02;13.07;;;;;;;21.43;80.80;100174.56;4995215;28;20022;-88
2022/06/11 02:00:07;;;;;;;19.35;13.90;;;;;;;21.46;80.94;100171.41;4978219;28;20015;-89
2022/06/11 02:03:11;;;;;;;19.92;12.45;;;;;;;21.52;80.69;100162.38;4977774;28;20045;-90
2022/06/11 02:05:49;;;;;;;26.90;12.90;;;;;;;21.49;80.73;100165.50;4938441;29;20031;-89
2022/06/11 02:08:29;;;;;;;18.50;11.75;;;;;;;21.56;80.79;100171.81;4990223;28;20042;-89
2022/06/11 02:11:10;;;;;;;15.23;11.95;;;;;;;21.53;80.77;100177.72;4977842;28;20097;-89
2022/06/11 02:13:44;;;;;;;21.17;14.52;;;;;;;21.53;81.30;100179.59;4977529;28;20030;-90
2022/06/11 02:16:24;;;;;;;20.98;14.43;;;;;;;21.50;81.48;100183.59;4994877;28;20100;-88
2022/06/11 02:18:53;;;;;;;16.38;10.82;;;;;;;21.55;81.34;100172.06;4994404;28;20030;-89
2022/06/11 02:21:32;;;;;;;33.03;11.00;;;;;;;21.57;81.02;100176.25;4995128;28;20065;-87
2022/06/11 02:24:04;;;;;;;12.02;8.38;;;;;;;21.49;81.58;100179.19;4974258;28;20047;-89
2022/06/11 02:26:39;;;;;;;11.23;8.32;;;;;;;21.42;82.38;100178.31;4974965;28;20037;-88
2022/06/11 02:29:06;;;;;;;13.48;9.15;;;;;;;21.31;83.17;100176.19;4975681;28;20022;-89
2022/06/11 02:31:37;;;;;;;10.65;9.07;;;;;;;21.27;83.58;100169.44;4975153;28;20023;-88
2022/06/11 02:34:05;;;;;;;12.40;8.77;;;;;;;21.19;84.03;100166.91;4975662;28;20022;-88
2022/06/11 02:36:43;;;;;;;13.77;8.73;;;;;;;21.11;84.77;100167.06;4958158;28;20066;-89
2022/06/11 02:39:09;;;;;;;11.18;8.63;;;;;;;21.02;84.94;100160.88;4957693;28;20110;-88
2022/06/11 02:41:35;;;;;;;13.98;9.45;;;;;;;21.12;85.00;100171.47;4975548;28;20448;-89
2022/06/11 02:44:02;;;;;;;15.73;8.93;;;;;;;21.06;85.01;100173.13;4957793;28;20026;-88
2022/06/11 02:46:45;;;;;;;10.52;9.13;;;;;;;21.04;84.81;100186.13;4974825;28;20504;-88
2022/06/11 02:49:12;;;;;;;11.10;8.50;;;;;;;21.01;85.09;100185.69;4975762;28;20031;-90
2022/06/11 02:51:37;;;;;;;16.77;8.77;;;;;;;20.92;84.64;100167.75;4957663;28;20038;-88
2022/06/11 02:54:03;;;;;;;19.75;8.82;;;;;;;21.00;84.56;100187.59;4975101;28;20053;-81
2022/06/11 02:56:29;;;;;;;13.25;8.73;;;;;;;21.02;84.61;100196.44;4973241;28;20023;-81
2022/06/11 02:58:55;;;;;;;12.82;9.18;;;;;;;21.09;84.26;100205.56;4973078;28;20465;-81
2022/06/11 03:01:22;;;;;;;14.30;9.85;;;;;;;21.08;83.64;100202.97;4973035;28;20031;-81
2022/06/11 03:03:49;;;;;;;11.77;8.35;;;;;;;21.06;83.45;100191.41;4973737;28;20034;-82
2022/06/11 03:06:16;;;;;;;11.23;9.00;;;;;;;21.04;83.47;100190.75;4974035;28;20027;-82
2022/06/11 03:08:42;;;;;;;10.82;9.23;;;;;;;20.95;83.81;100181.88;4973558;28;20473;-82
2022/06/11 03:11:08;;;;;;;13.25;9.50;;;;;;;20.98;84.04;100186.09;4973411;28;20033;-83
2022/06/11 03:13:34;;;;;;;15.27;9.88;;;;;;;20.86;84.44;100177.63;4973089;28;20029;-81
2022/06/11 03:16:00;;;;;;;25.48;11.32;;;;;;;20.88;85.07;100207.50;4973267;28;20037;-81
2022/06/11 03:18:26;;;;;;;11.40;9.52;;;;;;;20.88;85.58;100202.03;4972817;28;20030;-81
2022/06/11 03:20:53;;;;;;;12.70;10.45;;;;;;;20.81;86.36;100201.16;4973021;28;20034;-81
2022/06/11 03:23:19;;;;;;;11.80;10.23;;;;;;;20.82;86.62;100202.84;4972842;28;20517;-82
2022/06/11 03:25:46;;;;;;;12.80;10.43;;;;;;;20.69;87.19;100205.50;4972759;28;20031;-81
2022/06/11 03:28:17;;;;;;;13.15;11.80;;;;;;;20.69;88.07;100213.69;4973042;28;20030;-81
2022/06/11 03:30:44;;;;;;;17.63;11.47;;;;;;;20.67;88.62;100222.09;4955601;28;20026;-81
2022/06/11 03:33:10;;;;;;;21.70;12.23;;;;;;;20.60;89.39;100216.59;4972871;28;20019;-81
2022/06/11 03:35:36;;;;;;;18.58;11.77;;;;;;;20.70;89.47;100216.25;4972519;28;20033;-81
2022/06/11 03:38:02;;;;;;;16.38;12.32;;;;;;;20.74;89.35;100216.66;4972727;28;20027;-81
2022/06/11 03:40:28;;;;;;;15.00;12.13;;;;;;;20.76;90.03;100209.13;4982051;28;20507;-81
2022/06/11 03:42:54;;;;;;;13.18;11.10;;;;;;;20.74;89.52;100206.56;4994113;28;20094;-82
2022/06/11 03:45:20;;;;;;;16.42;13.05;;;;;;;20.82;89.63;100216.50;4978185;28;20062;-84
2022/06/11 03:47:46;;;;;;;22.52;13.63;;;;;;;20.84;89.41;100195.28;4996406;28;20057;-83
2022/06/11 03:50:24;;;;;;;18.17;13.32;;;;;;;20.93;89.91;100210.47;4996303;28;20022;-84
2022/06/11 03:52:50;;;;;;;13.90;11.80;;;;;;;20.94;89.87;100217.63;4996888;28;20032;-85
2022/06/11 03:55:16;;;;;;;16.30;12.10;;;;;;;21.03;90.00;100220.00;4996060;28;20026;-84
2022/06/11 03:57:44;;;;;;;14.27;11.18;;;;;;;21.15;89.51;100231.25;4996400;28;20030;-86
2022/06/11 04:00:14;;;;;;;17.73;12.63;;;;;;;21.17;89.33;100226.41;4979386;28;20029;-86
2022/06/11 04:02:40;;;;;;;15.77;12.38;;;;;;;21.27;89.19;100228.78;4996391;28;20483;-87
2022/06/11 04:05:06;;;;;;;20.50;13.15;;;;;;;21.36;88.59;100239.34;4996082;28;20053;-87
2022/06/11 04:07:32;;;;;;;17.65;12.23;;;;;;;21.53;88.24;100245.28;4996581;28;20057;-86
2022/06/11 04:09:58;;;;;;;15.43;12.63;;;;;;;21.57;87.19;100247.41;4996762;28;20018;-86
2022/06/11 04:12:24;;;;;;;13.50;11.60;;;;;;;21.61;86.63;100256.91;4996585;28;20097;-85
2022/06/11 04:14:50;;;;;;;16.33;12.63;;;;;;;21.82;85.91;100276.97;4978675;28;20026;-88
2022/06/11 04:17:28;;;;;;;22.30;13.75;;;;;;;21.79;86.21;100277.38;4978954;28;20026;-86
2022/06/11 04:19:54;;;;;;;48.13;13.88;;;;;;;21.71;86.43;100276.50;4977817;28;20033;-86
2022/06/11 04:22:20;;;;;;;43.63;15.15;;;;;;;21.74;87.10;100268.97;4977965;28;20034;-82
2022/06/11 04:24:47;;;;;;;41.03;15.07;;;;;;;21.86;86.54;100281.00;4977488;28;20440;-84
2022/06/11 04:27:15;;;;;;;28.00;13.77;;;;;;;21.85;86.89;100288.38;4995232;28;20034;-84
2022/06/11 04:29:44;;;;;;;17.30;11.98;;;;;;;21.86;87.08;100275.53;4995275;28;20022;-82
2022/06/11 04:32:15;;;;;;;32.60;14.35;;;;;;;21.88;87.10;100276.16;4977550;28;20117;-83
2022/06/11 04:34:43;;;;;;;17.42;12.40;;;;;;;21.87;87.06;100274.44;4994952;28;20435;-79
2022/06/11 04:37:13;;;;;;;21.52;12.95;;;;;;;21.88;87.25;100276.16;4993951;28;20022;-79
2022/06/11 04:39:44;;;;;;;19.10;12.30;;;;;;;21.85;87.50;100277.41;4993929;28;20022;-79
2022/06/11 04:42:11;;;;;;;16.85;12.93;;;;;;;21.87;87.73;100296.34;4994085;28;20049;-79
2022/06/11 04:44:38;;;;;;;24.52;14.95;;;;;;;21.88;87.90;100298.06;4994150;28;20038;-80
2022/06/11 04:47:05;;;;;;;23.02;14.90;;;;;;;21.82;88.27;100285.19;4991032;28;20026;-79
2022/06/11 04:49:30;;;;;;;19.88;13.13;;;;;;;21.84;88.16;100289.41;4994708;28;20026;-83
2022/06/11 04:51:56;;;;;;;17.58;12.93;;;;;;;21.94;88.09;100298.13;4994134;28;20034;-80
2022/06/11 04:54:22;;;;;;;22.30;12.38;;;;;;;21.91;87.83;100303.16;4992822;28;20057;-79
2022/06/11 04:56:47;;;;;;;21.90;13.75;;;;;;;21.93;87.92;100301.03;4993953;28;20025;-86
2022/06/11 04:59:13;;;;;;;19.17;12.63;;;;;;;21.91;87.70;100309.47;4995373;28;20076;-93
2022/06/11 05:01:40;;;;;;;16.83;13.57;;;;;;;22.00;87.96;100324.69;4979518;28;20499;-91
2022/06/11 05:04:06;;;;;;;20.58;14.00;;;;;;;21.81;87.52;100310.88;4979090;28;20030;-93
2022/06/11 05:06:37;;;;;;;19.17;13.18;;;;;;;21.99;88.36;100352.25;4978554;28;20026;-86
2022/06/11 05:09:03;;;;;;;26.85;14.95;;;;;;;22.03;88.01;100345.31;4995242;28;20019;-84
2022/06/11 05:11:29;;;;;;;35.13;14.18;;;;;;;22.08;87.60;100340.06;4996121;28;20023;-84
2022/06/11 05:13:54;;;;;;;18.70;13.27;;;;;;;22.02;87.37;100325.31;4995160;28;20029;-84
2022/06/11 05:16:21;;;;;;;43.15;15.55;;;;;;;22.18;87.18;100335.03;4994982;28;20037;-89
2022/06/11 05:18:48;;;;;;;25.00;15.52;;;;;;;22.15;87.31;100343.69;4977489;28;20102;-87
2022/06/11 05:21:14;;;;;;;30.58;14.18;;;;;;;22.06;87.54;100342.19;4995563;28;20037;-89
2022/06/11 05:23:40;;;;;;;24.23;13.82;;;;;;;22.14;88.08;100358.41;4995593;28;20506;-85
2022/06/11 05:26:06;;;;;;;18.77;14.05;;;;;;;22.05;88.72;100356.91;4994770;28;20105;-85
2022/06/11 05:28:33;;;;;;;20.77;14.27;;;;;;;22.06;89.24;100355.88;4994970;28;20026;-85
2022/06/11 05:30:59;;;;;;;25.45;15.30;;;;;;;22.04;90.12;100352.50;4994035;28;20058;-80
2022/06/11 05:33:26;;;;;;;23.58;16.52;;;;;;;22.03;90.80;100350.81;4993904;28;20485;-83
2022/06/11 05:35:52;;;;;;;28.67;18.17;;;;;;;21.98;91.96;100356.06;4994424;28;20381;-78
2022/06/11 05:38:22;;;;;;;23.52;16.70;;;;;;;21.98;92.89;100353.31;4994231;28;20034;-92
2022/06/11 05:40:49;;;;;;;20.45;17.17;;;;;;;21.94;93.99;100358.34;4996107;28;20522;-90
2022/06/11 05:43:16;;;;;;;30.20;18.05;;;;;;;21.92;94.83;100352.25;4995914;28;20076;-91
2022/06/11 05:45:47;;;;;;;30.30;18.02;;;;;;;21.92;95.44;100365.09;4977665;28;20014;-86
2022/06/11 05:48:15;;;;;;;26.45;18.20;;;;;;;21.83;95.81;100344.38;4994387;28;20114;-85
2022/06/11 05:50:45;;;;;;;27.90;18.33;;;;;;;22.01;95.98;100363.88;4994681;28;20109;-86
2022/06/11 05:53:13;;;;;;;33.17;17.50;;;;;;;22.05;95.00;100362.38;4996030;28;20019;-85
2022/06/11 05:55:41;;;;;;;40.42;18.40;;;;;;;22.09;94.39;100363.69;4994944;28;20516;-85
2022/06/11 05:58:16;;;;;;;38.50;17.50;;;;;;;22.15;94.12;100358.22;4995848;28;20045;-85
2022/06/11 06:00:42;;;;;;;38.25;18.42;;;;;;;22.23;93.77;100362.69;4976484;28;20093;-85
2022/06/11 06:03:08;;;;;;;53.78;17.92;;;;;;;22.34;92.81;100359.31;4994068;28;20034;-86
2022/06/11 06:05:33;;;;;;;22.02;15.32;;;;;;;22.28;92.00;100349.19;4993575;28;20044;-85
2022/06/11 06:07:59;;;;;;;25.90;16.50;;;;;;;22.34;91.81;100364.81;4976426;28;20518;-84
2022/06/11 06:10:25;;;;;;;24.98;15.43;;;;;;;22.30;92.08;100357.19;4993896;28;20523;-85
2022/06/11 06:12:51;;;;;;;29.25;16.13;;;;;;;22.37;92.01;100349.84;4993864;28;20022;-86
2022/06/11 06:15:20;;;;;;;33.60;15.13;;;;;;;22.50;91.26;100369.91;4976463;28;20026;-85
2022/06/11 06:17:48;;;;;;;27.17;15.27;;;;;;;22.54;91.21;100370.31;4993525;28;20062;-83
2022/06/11 06:20:15;;;;;;;31.40;16.30;;;;;;;22.50;91.33;100375.38;4993423;28;20049;-84
2022/06/11 06:22:42;;;;;;;24.08;15.63;;;;;;;22.42;91.04;100361.84;4975620;28;20111;-85
2022/06/11 06:25:10;;;;;;;26.30;16.58;;;;;;;22.55;91.03;100372.84;4993046;28;20026;-85
2022/06/11 06:27:36;;;;;;;25.05;15.95;;;;;;;22.50;90.83;100367.16;4993207;28;20030;-86
2022/06/11 06:30:02;;;;;;;38.58;16.73;;;;;;;22.57;91.00;100365.25;4993266;28;20033;-86
2022/06/11 06:32:28;;;;;;;27.63;16.23;;;;;;;22.61;91.03;100376.66;4993296;28;20032;-85
2022/06/11 06:34:54;;;;;;;26.10;16.17;;;;;;;22.56;90.94;100365.47;4993642;28;20097;-86
2022/06/11 06:37:19;;;;;;;22.73;16.33;;;;;;;22.58;90.81;100360.63;4993709;28;20028;-85
2022/06/11 06:39:45;;;;;;;36.33;17.33;;;;;;;22.60;91.03;100359.34;4993650;28;20031;-84
2022/06/11 06:42:11;;;;;;;26.27;16.90;;;;;;;22.68;90.64;100372.91;4994218;28;20034;-86
2022/06/11 06:44:36;;;;;;;25.08;17.38;;;;;;;22.68;90.71;100372.06;4994245;28;20037;-84
2022/06/11 06:47:02;;;;;;;38.08;22.25;;;;;;;22.76;90.76;100375.44;4993917;28;20129;-86
2022/06/11 06:49:28;;;;;;;24.92;17.30;;;;;;;22.63;90.98;100352.59;4994602;28;20034;-85
2022/06/11 06:51:53;;;;;;;27.17;18.20;;;;;;;22.63;91.88;100375.38;4993226;28;20049;-85
2022/06/11 06:54:20;;;;;;;24.58;17.77;;;;;;;22.55;92.22;100361.88;4993440;28;20084;-85
2022/06/11 06:56:45;;;;;;;27.95;17.52;;;;;;;22.48;93.37;100361.03;4992853;28;20023;-85
2022/06/11 06:59:12;;;;;;;28.40;18.05;;;;;;;22.47;93.77;100375.81;4975640;28;20496;-86
2022/06/11 07:01:37;;;;;;;26.40;18.80;;;;;;;22.49;94.54;100372.84;4993991;28;20057;-85
2022/06/11 07:04:03;;;;;;;24.20;18.77;;;;;;;22.54;95.20;100382.13;4994459;28;20480;-86
2022/06/11 07:06:31;;;;;;;30.02;19.02;;;;;;;22.48;95.25;100361.03;4976157;28;20080;-85
2022/06/11 07:08:56;;;;;;;25.55;20.23;;;;;;;22.46;95.51;100367.78;4992685;28;20030;-85
2022/06/11 07:11:22;;;;;;;25.60;20.20;;;;;;;22.51;95.75;100374.31;4992935;28;20389;-85
2022/06/11 07:13:48;;;;;;;22.83;19.13;;;;;;;22.53;95.85;100382.34;4992838;28;20077;-84
2022/06/11 07:16:18;;;;;;;28.27;19.85;;;;;;;22.39;94.46;100367.75;4992452;28;20022;-85
2022/06/11 07:18:54;;;;;;;25.48;18.52;;;;;;;22.40;92.67;100385.06;4978845;28;20391;-84
2022/06/11 07:21:25;;;;;;;21.88;17.13;;;;;;;22.46;91.38;100376.00;4979696;28;20031;-88
2022/06/11 07:23:54;;;;;;;22.73;17.58;;;;;;;22.37;91.38;100363.53;4997514;28;20045;-88
2022/06/11 07:26:26;;;;;;;25.88;17.05;;;;;;;22.52;91.25;100380.66;4996877;28;20026;-87
2022/06/11 07:29:03;;;;;;;31.93;18.20;;;;;;;22.52;91.02;100372.41;4996606;28;20018;-82
2022/06/11 07:31:30;;;;;;;24.35;17.92;;;;;;;22.56;92.05;100374.56;4996770;28;20022;-85
2022/06/11 07:33:55;;;;;;;20.17;17.98;;;;;;;22.55;92.80;100375.59;4996665;28;20231;-85
2022/06/11 07:36:21;;;;;;;27.17;19.42;;;;;;;22.49;93.38;100372.84;4996558;28;20026;-88
2022/06/11 07:38:47;;;;;;;28.55;18.55;;;;;;;22.47;94.40;100366.72;4996646;28;20079;-86
2022/06/11 07:41:12;;;;;;;26.70;18.38;;;;;;;22.48;95.26;100374.72;4996386;28;20428;-86
2022/06/11 07:43:38;;;;;;;24.45;19.90;;;;;;;22.48;96.58;100377.47;4996181;28;20023;-85
2022/06/11 07:46:05;;;;;;;27.42;20.65;;;;;;;22.40;97.02;100374.94;4996166;28;20030;-86
2022/06/11 07:48:30;;;;;;;27.08;20.05;;;;;;;22.52;97.63;100386.13;4996787;28;20054;-86
2022/06/11 07:50:56;;;;;;;30.42;19.27;;;;;;;22.50;97.97;100385.50;4996343;28;20408;-85
2022/06/11 07:53:22;;;;;;;24.08;18.80;;;;;;;22.47;97.95;100381.28;4996186;28;20082;-85
2022/06/11 07:55:51;;;;;;;25.23;18.58;;;;;;;22.53;97.85;100374.97;4997265;28;20027;-85
2022/06/11 07:58:18;;;;;;;33.83;20.45;;;;;;;22.52;98.42;100380.66;4996354;28;20030;-85
2022/06/11 08:00:47;;;;;;;22.40;18.50;;;;;;;22.52;98.63;100386.97;4996895;28;20023;-85
2022/06/11 08:03:13;;;;;;;28.77;19.83;;;;;;;22.54;98.35;100379.38;5000111;28;20030;-86
2022/06/11 08:05:39;;;;;;;27.25;18.58;;;;;;;22.50;97.73;100364.44;4979265;28;20101;-85
2022/06/11 08:08:07;;;;;;;34.22;19.80;;;;;;;22.51;97.80;100359.75;4996846;28;20026;-87
2022/06/11 08:10:33;;;;;;;28.92;20.05;;;;;;;22.57;97.36;100365.25;4979767;28;20054;-87
2022/06/11 08:12:58;;;;;;;27.55;18.90;;;;;;;22.60;97.04;100361.25;4996479;28;20052;-86
2022/06/11 08:15:26;;;;;;;26.02;18.23;;;;;;;22.54;96.63;100341.00;4997105;28;20050;-89
2022/06/11 08:17:51;;;;;;;23.23;16.75;;;;;;;22.62;96.48;100368.25;4996993;28;20112;-84
2022/06/11 08:20:21;;;;;;;25.13;18.15;;;;;;;22.56;96.16;100347.16;4995753;28;20480;-82
2022/06/11 08:22:47;;;;;;;21.83;15.40;;;;;;;22.65;95.85;100350.56;4996083;28;20050;-87
2022/06/11 08:25:13;;;;;;;28.40;17.85;;;;;;;22.60;96.78;100353.88;4996666;28;20045;-85
2022/06/11 08:27:38;;;;;;;22.13;17.08;;;;;;;22.64;96.41;100349.66;4995847;28;20093;-84
2022/06/11 08:30:05;;;;;;;23.33;16.83;;;;;;;22.76;95.64;100348.03;4996759;28;20154;-87
2022/06/11 08:32:30;;;;;;;22.95;16.38;;;;;;;22.70;94.29;100348.00;4979126;28;20022;-82
2022/06/11 08:34:56;;;;;;;18.90;15.68;;;;;;;22.70;94.50;100342.53;4977722;28;20026;-82
2022/06/11 08:37:23;;;;;;;21.10;16.50;;;;;;;22.82;94.35;100345.47;4995421;28;20029;-80
2022/06/11 08:39:49;;;;;;;18.60;13.73;;;;;;;22.87;94.11;100338.34;4994963;28;20096;-81
2022/06/11 08:42:35;;;;;;;24.65;15.00;;;;;;;22.99;93.58;100346.75;4977544;28;20397;-80
2022/06/11 08:45:25;;;;;;;21.05;14.50;;;;;;;22.99;93.21;100344.00;4995517;28;20404;-82
2022/06/11 08:47:55;;;;;;;16.75;14.52;;;;;;;23.01;92.70;100344.63;4996914;28;20030;-89
2022/06/11 08:50:31;;;;;;;27.20;14.20;;;;;;;23.04;91.88;100336.84;4980740;28;20085;-89
2022/06/11 08:52:56;;;;;;;14.85;12.35;;;;;;;23.12;91.77;100330.25;4979651;28;20030;-89
2022/06/11 08:55:28;;;;;;;19.17;13.40;;;;;;;23.14;91.20;100318.03;4979636;28;20030;-90
2022/06/11 08:57:58;;;;;;;19.88;14.35;;;;;;;23.25;90.87;100338.47;4981360;28;20026;-90
2022/06/11 09:00:39;;;;;;;18.23;13.40;;;;;;;23.30;91.04;100344.19;4996255;28;20026;-89
2022/06/11 09:03:12;;;;;;;21.15;14.95;;;;;;;23.30;90.78;100344.19;4980443;28;20061;-88
2022/06/11 09:06:03;;;;;;;28.75;16.08;;;;;;;23.40;91.55;100344.59;4999261;28;20049;-87
2022/06/11 09:08:50;;;;;;;21.42;14.18;;;;;;;23.26;91.16;100316.31;5002204;28;20019;-87
2022/06/11 09:11:24;;;;;;;20.10;13.52;;;;;;;23.42;90.89;100334.28;5002618;28;20091;-88
2022/06/11 09:14:16;;;;;;;18.35;13.68;;;;;;;23.29;89.74;100331.53;5003265;28;20489;-88
2022/06/11 09:16:50;;;;;;;16.20;12.73;;;;;;;23.32;90.49;100339.31;5006388;28;20030;-87
2022/06/11 09:19:30;;;;;;;23.00;14.52;;;;;;;23.41;90.58;100318.00;4994270;28;20030;-88
2022/06/11 09:22:18;;;;;;;19.05;13.52;;;;;;;23.52;89.75;100329.16;5011672;28;20033;-87
2022/06/11 09:25:06;;;;;;;16.70;13.25;;;;;;;23.60;89.34;100331.69;4994556;28;20060;-88
2022/06/11 09:27:37;;;;;;;21.83;13.23;;;;;;;23.64;89.16;100327.41;5000924;28;20489;-87
2022/06/11 09:30:08;;;;;;;22.42;13.40;;;;;;;23.56;89.36;100333.16;4977959;28;20031;-87
2022/06/11 09:32:56;;;;;;;19.58;14.63;;;;;;;23.56;88.73;100305.72;4995338;28;20053;-87
2022/06/11 09:35:32;;;;;;;18.42;13.75;;;;;;;23.59;89.58;100310.75;4977729;28;20030;-88
2022/06/11 09:38:23;;;;;;;27.50;16.10;;;;;;;23.60;88.31;100317.94;4994853;28;20030;-87
2022/06/11 09:41:10;;;;;;;22.70;14.07;;;;;;;23.54;90.21;100318.81;4976351;28;20543;-87
2022/06/11 09:43:41;;;;;;;18.52;14.85;;;;;;;23.59;90.51;100321.75;4995523;28;20101;-88
2022/06/11 09:46:17;;;;;;;21.45;16.17;;;;;;;23.63;91.07;100322.16;4977048;28;20141;-88
2022/06/11 09:49:04;;;;;;;14.60;12.07;;;;;;;23.64;89.32;100299.97;4995422;28;20038;-88
2022/06/11 09:51:48;;;;;;;18.15;13.70;;;;;;;23.70;88.81;100311.97;4994945;28;20026;-88
2022/06/11 09:54:51;;;;;;;24.45;16.50;;;;;;;23.89;88.40;100310.19;4977074;28;20137;-89
2022/06/11 09:57:27;;;;;;;13.15;11.20;;;;;;;23.66;87.55;100277.78;4995288;28;20030;-88
2022/06/11 10:00:02;;;;;;;17.33;12.18;;;;;;;23.70;87.25;100279.88;4994531;28;20084;-88
2022/06/11 10:05:26;;;;;;;19.42;12.65;;;;;;;23.98;85.50;100289.66;4995130;28;20022;-88
2022/06/11 10:07:58;;;;;;;16.05;12.80;;;;;;;23.92;85.97;100263.06;4993914;28;20038;-88
2022/06/11 10:10:29;;;;;;;41.80;24.10;;;;;;;24.06;85.97;100261.94;4975902;28;20022;-89
2022/06/11 10:13:10;;;;;;;20.08;12.23;;;;;;;24.13;86.16;100262.75;4994170;28;20022;-89
2022/06/11 10:15:39;;;;;;;19.63;14.07;;;;;;;24.24;85.87;100248.31;4995469;28;20030;-89
2022/06/11 10:18:26;;;;;;;22.55;12.32;;;;;;;24.36;84.97;100252.03;4977783;28;20029;-89
2022/06/11 10:21:09;;;;;;;16.77;11.48;;;;;;;24.45;84.82;100255.34;4995467;28;20546;-89
2022/06/11 10:23:42;;;;;;;;;;;;;;;24.47;83.89;100258.69;4978338;28;20050;-90
2022/06/11 10:26:50;;;;;;;19.17;12.65;;;;;;;24.43;84.82;100252.81;4978781;28;19917;-88
2022/06/11 10:29:27;;;;;;;56.53;29.08;;;;;;;24.59;83.16;100255.00;4918586;29;20027;-90
2022/06/11 10:32:06;;;;;;;21.85;13.65;;;;;;;24.65;83.69;100254.09;4989583;28;20562;-88
2022/06/11 10:34:34;;;;;;;16.58;11.02;;;;;;;24.78;82.35;100240.22;4977489;28;20496;-89
2022/06/11 10:37:03;;;;;;;107.25;49.92;;;;;;;24.83;80.02;100245.91;4994792;28;20030;-89
2022/06/11 10:39:48;;;;;;;16.33;11.73;;;;;;;24.83;79.47;100247.84;4993657;28;20033;-88
2022/06/11 10:42:40;;;;;;;19.40;12.70;;;;;;;24.77;78.82;100255.03;4978123;28;20088;-88
2022/06/11 10:45:12;;;;;;;14.83;10.23;;;;;;;24.83;78.32;100243.16;4992673;28;20046;-89
2022/06/11 10:47:53;;;;;;;27.67;13.75;;;;;;;24.95;79.01;100234.19;4978685;28;20192;-89
2022/06/11 10:50:24;;;;;;;23.00;18.10;;;;;;;25.06;77.86;100238.91;4996444;28;20029;-90
2022/06/11 10:53:01;;;;;;;16.05;11.25;;;;;;;25.04;75.92;100243.81;4997653;28;20485;-89
2022/06/11 10:56:16;;;;;;;83.35;42.70;;;;;;;24.87;76.10;100241.66;4980190;28;20026;-87
2022/06/11 10:58:52;;;;;;;11.48;10.27;;;;;;;24.78;76.17;100222.88;4937936;29;20051;-88
2022/06/11 11:01:41;;;;;;;13.43;10.43;;;;;;;24.63;76.95;100231.50;4994805;28;20034;-88
2022/06/11 11:04:07;;;;;;;16.60;11.80;;;;;;;24.65;77.49;100232.09;4980928;28;20421;-88
2022/06/11 11:06:36;;;;;;;14.38;11.23;;;;;;;24.56;77.17;100236.19;4982083;28;20022;-89
2022/06/11 11:09:20;;;;;;;17.02;11.75;;;;;;;24.44;78.27;100227.00;4980951;28;20026;-88
2022/06/11 11:11:49;;;;;;;14.70;11.32;;;;;;;24.35;79.06;100222.84;4997555;28;20037;-88
2022/06/11 11:14:18;;;;;;;14.57;10.90;;;;;;;24.27;79.70;100214.88;4999136;28;20026;-87
2022/06/11 11:16:48;;;;;;;14.88;11.80;;;;;;;24.28;79.52;100211.91;4998159;28;20033;-87
2022/06/11 11:19:20;;;;;;;17.70;11.65;;;;;;;24.33;79.76;100219.47;4980769;28;20030;-87
2022/06/11 11:21:51;;;;;;;17.80;12.25;;;;;;;24.18;80.22;100202.47;4997862;28;20480;-87
2022/06/11 11:24:24;;;;;;;13.80;11.53;;;;;;;24.13;80.86;100202.28;4981301;28;20057;-87
2022/06/11 11:26:58;;;;;;;19.15;11.02;;;;;;;24.28;80.32;100219.28;4998501;28;20029;-88
2022/06/11 11:29:31;;;;;;;12.93;11.57;;;;;;;24.19;81.25;100209.66;4981206;28;20026;-88
2022/06/11 11:32:04;;;;;;;16.38;12.38;;;;;;;24.21;80.65;100204.78;4998977;28;20389;-88
2022/06/11 11:34:42;;;;;;;18.52;11.85;;;;;;;23.99;80.53;100192.44;4998630;28;20088;-89
2022/06/11 11:37:14;;;;;;;18.05;11.45;;;;;;;24.26;80.60;100224.19;4988652;28;20130;-87